Morges, Ohio
Current Conditions -  °F | °C
As of 2:53 AM on Tuesday 21 Oct 2014 (Local Time) from KPHD Reporting Station
Haze Haze  
Wind Chill: 50°   Ceiling: 1200
Heat Index: 50°   Visibility: 6mi
Dew Point: 49°   Wind: 0mph
Humidity: 96%   Direction: NA
Pressure: 29.86"   Gusts: NA
Location:  40.65°N, 81.2986°W
Report Text: KPHD 210653Z AUTO 00000KT 6SM BR OVC012 10/09 A2986 RMK AO2 SLP112 T01000094
Loading
Personal Weather Stations






























Interactive Weather Map
Tropical Storm Tracking
New forecast layout! Learn more

10-Day Weather Forecast

Advertisements
Track Severe Weather on mobile